createdAt,value
2022-10-11T00:00:05.478Z,101850.34
2022-10-11T00:02:34.479Z,101843.34
2022-10-11T00:05:05.211Z,101850.34
2022-10-11T00:07:34.156Z,101859.47
2022-10-11T00:10:03.185Z,101861.41
2022-10-11T00:12:32.571Z,101867.38
2022-10-11T00:15:01.776Z,101871.50
2022-10-11T00:17:30.938Z,101878.19
2022-10-11T00:20:00.133Z,101874.06
2022-10-11T00:22:30.520Z,101880.19
2022-10-11T00:24:59.718Z,101887.00
2022-10-11T00:27:28.939Z,101895.75
2022-10-11T00:29:58.245Z,101894.25
2022-10-11T00:32:27.335Z,101900.25
2022-10-11T00:34:59.624Z,101900.72
2022-10-11T00:37:29.976Z,101898.47
2022-10-11T00:39:59.045Z,101904.63
2022-10-11T00:42:28.219Z,101903.53
2022-10-11T00:45:30.809Z,101907.81
2022-10-11T00:48:03.450Z,101907.06
2022-10-11T00:50:36.118Z,101900.66
2022-10-11T00:53:11.349Z,101898.06
2022-10-11T00:55:46.586Z,101912.94
2022-10-11T00:58:16.002Z,101908.66
2022-10-11T01:00:45.135Z,101905.53
2022-10-11T01:03:14.153Z,101900.84
2022-10-11T01:05:43.462Z,101906.72
2022-10-11T01:08:14.262Z,101905.22
2022-10-11T01:10:43.244Z,101906.81
2022-10-11T01:13:22.115Z,101909.34
2022-10-11T01:15:59.520Z,101911.03
2022-10-11T01:18:35.939Z,101912.44
2022-10-11T01:21:12.340Z,101910.69
2022-10-11T01:24:20.977Z,101918.09
2022-10-11T01:27:26.015Z,101913.94
2022-10-11T01:30:06.005Z,101922.22
2022-10-11T01:32:45.168Z,101916.31
2022-10-11T01:35:22.217Z,101930.72
2022-10-11T01:37:56.745Z,101928.13
2022-10-11T01:40:31.556Z,101934.09
2022-10-11T01:43:01.434Z,101941.84
2022-10-11T01:45:32.157Z,101938.47
2022-10-11T01:48:08.564Z,101935.25
2022-10-11T01:50:44.210Z,101931.88
2022-10-11T01:53:29.820Z,101936.84
2022-10-11T01:56:07.154Z,101943.41
2022-10-11T01:58:47.715Z,101944.34
2022-10-11T02:01:28.418Z,101940.47
2022-10-11T02:04:06.518Z,101947.84
2022-10-11T02:06:46.288Z,101949.94
2022-10-11T02:09:24.754Z,101950.69
2022-10-11T02:11:58.177Z,101952.63
2022-10-11T02:14:32.515Z,101948.69
2022-10-11T02:17:07.597Z,101953.41
2022-10-11T02:19:42.811Z,101960.84
2022-10-11T02:22:16.733Z,101961.91
2022-10-11T02:24:50.368Z,101960.38
2022-10-11T02:27:22.879Z,101960.94
2022-10-11T02:29:55.026Z,101964.53
2022-10-11T02:32:26.635Z,101970.81
2022-10-11T02:34:58.839Z,101967.44
2022-10-11T02:37:36.936Z,101961.88
2022-10-11T02:40:11.982Z,101962.34
2022-10-11T02:42:46.391Z,101965.19
2022-10-11T02:45:19.518Z,101970.31
2022-10-11T02:47:49.319Z,101965.50
2022-10-11T02:50:19.864Z,101973.63
2022-10-11T02:52:48.908Z,101977.53
2022-10-11T02:55:18.097Z,101980.38
2022-10-11T02:57:47.186Z,101985.41
2022-10-11T03:00:16.882Z,101976.38
2022-10-11T03:02:45.888Z,101989.19
2022-10-11T03:05:14.889Z,101992.03
2022-10-11T03:07:45.199Z,101996.00
2022-10-11T03:10:14.607Z,101994.47
2022-10-11T03:12:43.600Z,102007.28
2022-10-11T03:15:12.682Z,102012.94
2022-10-11T03:17:41.624Z,102008.06
2022-10-11T03:20:11.223Z,102009.88
2022-10-11T03:22:40.753Z,102010.19
2022-10-11T03:25:11.710Z,102020.09
2022-10-11T03:27:41.085Z,102022.16
2022-10-11T03:30:13.338Z,102023.53
2022-10-11T03:32:45.276Z,102035.72
2022-10-11T03:35:14.470Z,102037.97
2022-10-11T03:37:43.431Z,102045.97
2022-10-11T03:40:14.501Z,102043.34
2022-10-11T03:42:43.486Z,102048.03
2022-10-11T03:45:12.698Z,102041.28
2022-10-11T03:47:42.195Z,102050.69
2022-10-11T03:50:11.945Z,102044.34
2022-10-11T03:52:40.966Z,102043.94
2022-10-11T03:55:10.476Z,102039.97
2022-10-11T03:57:41.485Z,102039.22
2022-10-11T04:00:11.329Z,102044.28
2022-10-11T04:02:40.295Z,102045.28
2022-10-11T04:05:10.327Z,102040.53
2022-10-11T04:07:39.452Z,102051.72
2022-10-11T04:10:09.520Z,102060.22
2022-10-11T04:12:40.300Z,102063.91
2022-10-11T04:15:12.565Z,102060.63
2022-10-11T04:17:41.823Z,102066.00
2022-10-11T04:20:11.724Z,102067.50
2022-10-11T04:22:40.894Z,102075.72
2022-10-11T04:25:10.681Z,102080.31
2022-10-11T04:27:42.262Z,102076.25
2022-10-11T04:30:12.794Z,102080.16
2022-10-11T04:32:41.789Z,102092.03
2022-10-11T04:35:10.922Z,102087.53
2022-10-11T04:37:40.254Z,102086.13
2022-10-11T04:40:11.092Z,102092.44
2022-10-11T04:42:41.399Z,102092.81
2022-10-11T04:45:11.113Z,102100.94
2022-10-11T04:47:41.054Z,102099.47
2022-10-11T04:50:10.368Z,102098.78
2022-10-11T04:52:39.315Z,102100.69
2022-10-11T04:55:08.842Z,102102.44
2022-10-11T04:57:39.025Z,102107.97
2022-10-11T05:00:10.977Z,102114.16
2022-10-11T05:02:39.915Z,102119.19
2022-10-11T05:05:09.840Z,102115.88
2022-10-11T05:07:38.817Z,102128.06
2022-10-11T05:10:09.217Z,102128.44
2022-10-11T05:12:38.273Z,102128.78
2022-10-11T05:15:10.213Z,102131.31
2022-10-11T05:17:41.292Z,102137.00
2022-10-11T05:20:10.989Z,102135.56
2022-10-11T05:22:39.975Z,102136.75
2022-10-11T05:25:09.402Z,102140.19
2022-10-11T05:27:38.367Z,102146.03
2022-10-11T05:30:09.866Z,102147.09
2022-10-11T05:32:38.886Z,102154.19
2022-10-11T05:35:08.591Z,102156.09
2022-10-11T05:37:37.598Z,102156.81
2022-10-11T05:40:07.766Z,102170.13
2022-10-11T05:42:36.758Z,102170.69
2022-10-11T05:45:06.920Z,102174.03
2022-10-11T05:47:37.425Z,102173.38
2022-10-11T05:50:07.078Z,102179.56
2022-10-11T05:52:35.980Z,102181.31
2022-10-11T05:55:05.404Z,102188.94
2022-10-11T05:57:34.414Z,102184.91
2022-10-11T06:00:03.572Z,102184.84
2022-10-11T06:02:42.607Z,102188.00
2022-10-11T06:05:11.667Z,102201.19
2022-10-11T06:07:41.266Z,102198.78
2022-10-11T06:10:10.839Z,102200.41
2022-10-11T06:12:39.965Z,102205.75
2022-10-11T06:15:10.788Z,102196.19
2022-10-11T06:17:41.202Z,102210.81
2022-10-11T06:20:11.116Z,102212.66
2022-10-11T06:22:40.181Z,102214.44
2022-10-11T06:25:09.655Z,102218.09
2022-10-11T06:27:38.680Z,102217.09
2022-10-11T06:30:08.634Z,102225.84
2022-10-11T06:32:37.542Z,102233.53
2022-10-11T06:35:08.991Z,102231.47
2022-10-11T06:37:37.943Z,102237.53
2022-10-11T06:40:08.038Z,102241.84
2022-10-11T06:42:36.984Z,102241.34
2022-10-11T06:45:06.855Z,102236.06
2022-10-11T06:47:35.825Z,102241.19
2022-10-11T06:50:06.180Z,102246.09
2022-10-11T06:52:36.534Z,102239.34
2022-10-11T06:55:06.112Z,102235.47
2022-10-11T06:57:35.068Z,102241.00
2022-10-11T07:00:07.067Z,102241.34
2022-10-11T07:02:39.222Z,102252.25
2022-10-11T07:05:09.042Z,102248.44
2022-10-11T07:07:39.309Z,102245.28
2022-10-11T07:10:09.250Z,102254.34
2022-10-11T07:12:38.179Z,102256.84
2022-10-11T07:15:08.193Z,102253.84
2022-10-11T07:17:37.147Z,102263.03
2022-10-11T07:20:07.159Z,102264.66
2022-10-11T07:22:36.198Z,102269.59
2022-10-11T07:25:07.714Z,102268.34
2022-10-11T07:27:36.704Z,102268.56
2022-10-11T07:30:06.602Z,102270.84
2022-10-11T07:32:35.552Z,102272.84
2022-10-11T07:35:04.817Z,102265.63
2022-10-11T07:37:35.043Z,102273.75
2022-10-11T07:40:06.874Z,102278.50
2022-10-11T07:42:35.809Z,102273.03
2022-10-11T07:45:05.512Z,102284.84
2022-10-11T07:47:34.444Z,102278.53
2022-10-11T07:50:03.442Z,102283.25
2022-10-11T07:52:32.438Z,102281.00
2022-10-11T07:55:01.398Z,102283.59
2022-10-11T07:57:31.778Z,102286.72
2022-10-11T08:00:00.739Z,102288.59
2022-10-11T08:02:29.684Z,102291.94
2022-10-11T08:04:59.247Z,102289.19
2022-10-11T08:07:29.660Z,102286.97
2022-10-11T08:09:58.779Z,102296.06
2022-10-11T08:12:27.738Z,102296.00
2022-10-11T08:14:58.069Z,102298.09
2022-10-11T08:17:27.110Z,102293.34
2022-10-11T08:19:57.946Z,102293.75
2022-10-11T08:22:26.936Z,102301.53
2022-10-11T08:24:55.846Z,102299.19
2022-10-11T08:27:24.892Z,102307.13
2022-10-11T08:29:53.829Z,102312.25
2022-10-11T08:32:24.146Z,102306.78
2022-10-11T08:34:53.063Z,102314.13
2022-10-11T08:37:22.015Z,102315.56
2022-10-11T08:39:51.003Z,102316.59
2022-10-11T08:42:30.195Z,102308.59
2022-10-11T08:45:11.136Z,102313.84
2022-10-11T08:47:45.101Z,102306.81
2022-10-11T08:50:20.723Z,102314.44
2022-10-11T08:52:54.552Z,102312.69
2022-10-11T08:55:31.398Z,102314.78
2022-10-11T08:58:01.052Z,102312.19
2022-10-11T09:00:34.044Z,102311.03
2022-10-11T09:03:12.544Z,102314.69
2022-10-11T09:05:52.777Z,102308.41
2022-10-11T09:08:28.546Z,102310.66
2022-10-11T09:11:07.013Z,102317.78
2022-10-11T09:14:06.608Z,102316.00
2022-10-11T09:16:49.273Z,102318.25
2022-10-11T09:20:06.347Z,102317.78
2022-10-11T09:22:45.408Z,102309.28
2022-10-11T09:25:23.973Z,102320.53
2022-10-11T09:28:06.362Z,102327.47
2022-10-11T09:30:48.074Z,102324.50
2022-10-11T09:33:21.044Z,102325.69
2022-10-11T09:35:53.184Z,102328.44
2022-10-11T09:38:40.721Z,102322.88
2022-10-11T09:41:19.509Z,102334.25
2022-10-11T09:43:51.213Z,102328.72
2022-10-11T09:46:23.975Z,102319.25
2022-10-11T09:48:55.450Z,102325.94
2022-10-11T09:51:27.894Z,102325.91
2022-10-11T09:54:00.771Z,102323.00
2022-10-11T09:56:31.627Z,102319.84
2022-10-11T09:59:26.195Z,102328.66
2022-10-11T10:02:18.870Z,102322.56
2022-10-11T10:05:14.081Z,102338.41
2022-10-11T10:08:05.106Z,102349.94
2022-10-11T10:10:42.208Z,102350.78
2022-10-11T10:13:22.661Z,102355.50
2022-10-11T10:15:53.512Z,102358.28
2022-10-11T10:18:25.213Z,102357.97
2022-10-11T10:20:56.833Z,102357.03
2022-10-11T10:23:28.745Z,102357.22
2022-10-11T10:26:14.748Z,102362.91
2022-10-11T10:29:01.011Z,102361.44
2022-10-11T10:31:49.518Z,102357.91
2022-10-11T10:34:28.676Z,102356.34
2022-10-11T10:37:01.806Z,102359.38
2022-10-11T10:39:37.911Z,102351.72
2022-10-11T10:42:14.922Z,102363.56
2022-10-11T10:44:45.937Z,102358.88
2022-10-11T10:47:25.005Z,102352.28
2022-10-11T10:50:01.244Z,102361.78
2022-10-11T10:52:49.207Z,102355.16
2022-10-11T10:55:26.517Z,102357.44
2022-10-11T10:58:09.644Z,102352.91
2022-10-11T11:00:44.470Z,102354.25
2022-10-11T11:03:22.828Z,102353.44
2022-10-11T11:06:01.789Z,102356.47
2022-10-11T11:08:49.047Z,102352.50
2022-10-11T11:11:41.695Z,102352.03
2022-10-11T11:14:23.356Z,102357.13
2022-10-11T11:17:01.074Z,102367.66
2022-10-11T11:19:41.935Z,102364.47
2022-10-11T11:22:21.175Z,102363.19
2022-10-11T11:25:01.009Z,102370.06
2022-10-11T11:27:44.128Z,102363.41
2022-10-11T11:30:21.278Z,102365.34
2022-10-11T11:33:02.351Z,102368.97
2022-10-11T11:35:37.906Z,102370.25
2022-10-11T11:38:17.793Z,102369.91
2022-10-11T11:40:52.914Z,102367.53
2022-10-11T11:43:27.828Z,102361.63
2022-10-11T11:46:02.154Z,102362.59
2022-10-11T11:48:31.272Z,102354.09
2022-10-11T11:51:06.784Z,102369.16
2022-10-11T11:53:51.454Z,102360.09
2022-10-11T11:56:28.725Z,102356.88
2022-10-11T11:59:07.498Z,102360.38
2022-10-11T12:01:45.590Z,102350.00
2022-10-11T12:04:22.915Z,102342.91
2022-10-11T12:07:18.058Z,102346.31
2022-10-11T12:09:50.555Z,102338.03
2022-10-11T12:12:30.070Z,102354.75
2022-10-11T12:15:19.915Z,102339.50
2022-10-11T12:18:15.475Z,102350.88
2022-10-11T12:20:46.049Z,102346.78
2022-10-11T12:23:42.067Z,102355.00
2022-10-11T12:26:33.525Z,102347.59
2022-10-11T12:29:41.526Z,102348.09
2022-10-11T12:32:51.801Z,102347.00
2022-10-11T12:35:57.209Z,102342.03
2022-10-11T12:38:28.562Z,102347.16
2022-10-11T12:41:00.462Z,102342.91
2022-10-11T12:43:36.879Z,102352.16
2022-10-11T12:46:41.474Z,102348.28
2022-10-11T12:49:41.766Z,102347.72
2022-10-11T12:52:30.178Z,102339.59
2022-10-11T12:55:22.429Z,102346.56
2022-10-11T12:58:24.480Z,102345.63
2022-10-11T13:01:22.055Z,102340.88
2022-10-11T13:03:59.238Z,102346.09
2022-10-11T13:06:31.989Z,102348.09
2022-10-11T13:09:08.138Z,102342.72
2022-10-11T13:11:41.469Z,102350.78
2022-10-11T13:14:17.401Z,102355.09
2022-10-11T13:16:51.808Z,102351.31
2022-10-11T13:19:24.248Z,102354.75
2022-10-11T13:21:56.949Z,102357.56
2022-10-11T13:24:29.447Z,102352.50
2022-10-11T13:26:58.994Z,102335.34
2022-10-11T13:29:34.402Z,102343.72
2022-10-11T13:32:07.281Z,102346.47
2022-10-11T13:34:40.218Z,102351.59
2022-10-11T13:37:16.559Z,102337.50
2022-10-11T13:39:48.835Z,102340.31
2022-10-11T13:42:19.704Z,102347.09
2022-10-11T13:44:49.262Z,102343.56
2022-10-11T13:47:21.998Z,102340.56
2022-10-11T13:50:03.707Z,102339.16
2022-10-11T13:52:33.357Z,102344.13
2022-10-11T13:55:22.716Z,102343.03
2022-10-11T13:57:53.288Z,102340.06
2022-10-11T14:00:29.643Z,102338.72
2022-10-11T14:03:01.295Z,102338.22
2022-10-11T14:05:33.689Z,102348.03
2022-10-11T14:08:05.357Z,102343.78
2022-10-11T14:10:36.277Z,102345.56
2022-10-11T14:13:08.984Z,102342.63
2022-10-11T14:15:39.174Z,102343.34
2022-10-11T14:18:43.341Z,102340.00
2022-10-11T14:21:57.206Z,102343.47
2022-10-11T14:24:26.208Z,102341.50
2022-10-11T14:26:58.052Z,102349.78
2022-10-11T14:29:28.983Z,102340.53
2022-10-11T14:32:02.289Z,102340.94
2022-10-11T14:34:31.972Z,102346.34
2022-10-11T14:37:00.958Z,102338.28
2022-10-11T14:39:33.101Z,102340.22
2022-10-11T14:42:03.642Z,102349.16
2022-10-11T14:44:32.549Z,102353.41
2022-10-11T14:47:02.425Z,102359.00
2022-10-11T14:49:33.614Z,102360.59
2022-10-11T14:52:03.686Z,102353.03
2022-10-11T14:54:33.165Z,102351.75
2022-10-11T14:57:06.100Z,102357.00
2022-10-11T14:59:37.739Z,102360.66
2022-10-11T15:02:09.156Z,102364.22
2022-10-11T15:04:38.105Z,102355.06
2022-10-11T15:07:07.197Z,102356.56
2022-10-11T15:09:36.106Z,102357.63
2022-10-11T15:12:06.837Z,102357.66
2022-10-11T15:14:35.765Z,102361.47
2022-10-11T15:17:04.748Z,102356.22
2022-10-11T15:19:33.701Z,102361.06
2022-10-11T15:22:04.277Z,102362.63
2022-10-11T15:24:33.333Z,102369.44
2022-10-11T15:27:02.285Z,102363.97
2022-10-11T15:29:32.621Z,102367.47
2022-10-11T15:32:01.618Z,102367.88
2022-10-11T15:34:30.559Z,102359.56
2022-10-11T15:36:59.684Z,102363.69
2022-10-11T15:39:32.466Z,102364.22
2022-10-11T15:42:01.921Z,102368.94
2022-10-11T15:44:32.219Z,102362.00
2022-10-11T15:47:01.176Z,102366.63
2022-10-11T15:49:30.129Z,102363.97
2022-10-11T15:51:59.069Z,102373.88
2022-10-11T15:54:28.011Z,102364.28
2022-10-11T15:56:57.079Z,102364.28
2022-10-11T15:59:25.982Z,102367.75
2022-10-11T16:01:56.432Z,102366.81
2022-10-11T16:04:25.398Z,102366.56
2022-10-11T16:06:54.332Z,102369.19
2022-10-11T16:09:23.233Z,102371.28
2022-10-11T16:11:52.144Z,102370.72
2022-10-11T16:14:21.076Z,102375.13
2022-10-11T16:16:50.004Z,102371.56
2022-10-11T16:19:20.256Z,102378.91
2022-10-11T16:21:49.203Z,102385.59
2022-10-11T16:24:18.122Z,102376.84
2022-10-11T16:26:47.124Z,102383.16
2022-10-11T16:29:16.053Z,102374.50
2022-10-11T16:31:44.975Z,102380.06
2022-10-11T16:34:13.852Z,102375.00
2022-10-11T16:36:45.786Z,102385.31
2022-10-11T16:39:16.875Z,102383.00
2022-10-11T16:41:47.208Z,102386.66
2022-10-11T16:44:19.244Z,102386.56
2022-10-11T16:46:49.508Z,102386.84
2022-10-11T16:49:21.949Z,102389.41
2022-10-11T16:51:53.865Z,102389.28
2022-10-11T16:54:23.684Z,102388.16
2022-10-11T16:56:52.642Z,102389.94
2022-10-11T16:59:21.766Z,102389.94
2022-10-11T17:01:50.711Z,102389.94
2022-10-11T17:04:19.771Z,102382.81
2022-10-11T17:06:48.798Z,102384.50
2022-10-11T17:09:19.279Z,102384.78
2022-10-11T17:11:48.219Z,102378.03
2022-10-11T17:14:17.299Z,102383.13
2022-10-11T17:16:46.634Z,102375.63
2022-10-11T17:19:16.806Z,102379.28
2022-10-11T17:21:45.768Z,102376.41
2022-10-11T17:24:14.707Z,102374.53
2022-10-11T17:26:44.969Z,102375.06
2022-10-11T17:29:15.983Z,102376.38
2022-10-11T17:31:49.058Z,102376.94
2022-10-11T17:34:18.672Z,102385.28
2022-10-11T17:36:47.712Z,102389.13
2022-10-11T17:39:20.037Z,102384.03
2022-10-11T17:41:50.747Z,102395.75
2022-10-11T17:44:20.519Z,102392.81
2022-10-11T17:46:50.161Z,102385.13
2022-10-11T17:49:19.160Z,102391.91
2022-10-11T17:51:48.206Z,102390.56
2022-10-11T17:54:17.147Z,102397.66
2022-10-11T17:56:46.071Z,102387.53
2022-10-11T17:59:21.183Z,102389.31
2022-10-11T18:01:50.792Z,102389.56
2022-10-11T18:04:21.652Z,102383.91
2022-10-11T18:06:50.776Z,102391.44
2022-10-11T18:09:20.040Z,102390.69
2022-10-11T18:11:49.404Z,102385.88
2022-10-11T18:14:20.090Z,102389.69
2022-10-11T18:16:50.496Z,102387.16
2022-10-11T18:19:19.492Z,102389.78
2022-10-11T18:21:48.442Z,102395.03
2022-10-11T18:24:18.312Z,102396.19
2022-10-11T18:26:47.793Z,102394.69
2022-10-11T18:29:16.858Z,102392.66
2022-10-11T18:31:47.241Z,102395.44
2022-10-11T18:34:16.214Z,102392.72
2022-10-11T18:36:45.692Z,102391.28
2022-10-11T18:39:16.217Z,102393.53
2022-10-11T18:41:45.436Z,102397.00
2022-10-11T18:44:16.153Z,102393.59
2022-10-11T18:46:46.929Z,102395.53
2022-10-11T18:49:15.891Z,102396.41
2022-10-11T18:51:47.888Z,102395.72
2022-10-11T18:54:20.261Z,102399.13
2022-10-11T18:56:50.662Z,102389.75
2022-10-11T18:59:20.340Z,102389.81
2022-10-11T19:01:52.634Z,102397.22
2022-10-11T19:04:22.110Z,102396.59
2022-10-11T19:06:52.566Z,102397.44
2022-10-11T19:09:23.377Z,102398.22
2022-10-11T19:11:53.611Z,102392.69
2022-10-11T19:14:25.546Z,102394.78
2022-10-11T19:16:56.425Z,102400.41
2022-10-11T19:19:28.049Z,102397.84
2022-10-11T19:21:57.504Z,102396.41
2022-10-11T19:24:29.710Z,102389.66
2022-10-11T19:27:02.548Z,102401.09
2022-10-11T19:29:32.750Z,102400.13
2022-10-11T19:32:04.802Z,102400.13
2022-10-11T19:34:33.845Z,102391.72
2022-10-11T19:37:03.978Z,102398.75
2022-10-11T19:39:33.141Z,102399.16
2022-10-11T19:42:02.530Z,102394.84
2022-10-11T19:44:35.727Z,102397.63
2022-10-11T19:47:10.058Z,102396.41
2022-10-11T19:49:39.076Z,102388.41
2022-10-11T19:52:09.451Z,102402.06
2022-10-11T19:54:38.425Z,102394.97
2022-10-11T19:57:08.704Z,102398.03
2022-10-11T19:59:37.718Z,102397.72
2022-10-11T20:02:08.348Z,102397.59
2022-10-11T20:04:51.945Z,102399.69
2022-10-11T20:07:21.269Z,102399.53
2022-10-11T20:09:50.240Z,102403.28
2022-10-11T20:12:19.227Z,102398.66
2022-10-11T20:14:48.528Z,102399.69
2022-10-11T20:17:18.832Z,102394.19
2022-10-11T20:19:47.844Z,102398.78
2022-10-11T20:22:16.916Z,102395.06
2022-10-11T20:24:45.858Z,102397.88
2022-10-11T20:27:14.917Z,102402.25
2022-10-11T20:29:43.869Z,102401.38
2022-10-11T20:32:12.834Z,102404.75
2022-10-11T20:34:43.178Z,102402.28
2022-10-11T20:37:12.207Z,102407.03
2022-10-11T20:39:41.212Z,102408.53
2022-10-11T20:42:10.149Z,102408.44
2022-10-11T20:44:39.219Z,102403.72
2022-10-11T20:47:08.556Z,102395.94
2022-10-11T20:49:37.702Z,102399.34
2022-10-11T20:52:08.268Z,102405.63
2022-10-11T20:54:37.253Z,102394.41
2022-10-11T20:57:06.274Z,102396.66
2022-10-11T20:59:35.665Z,102399.97
2022-10-11T21:02:04.705Z,102404.59
2022-10-11T21:04:33.717Z,102406.50
2022-10-11T21:07:02.906Z,102400.34
2022-10-11T21:09:33.234Z,102415.84
2022-10-11T21:12:02.749Z,102411.63
2022-10-11T21:14:31.739Z,102408.47
2022-10-11T21:17:00.754Z,102414.38
2022-10-11T21:19:29.986Z,102414.16
2022-10-11T21:21:58.911Z,102414.38
2022-10-11T21:24:27.888Z,102421.56
2022-10-11T21:27:00.674Z,102417.25
2022-10-11T21:29:30.563Z,102418.75
2022-10-11T21:31:59.572Z,102413.88
2022-10-11T21:34:28.514Z,102412.31
2022-10-11T21:36:57.452Z,102411.94
2022-10-11T21:39:26.470Z,102404.31
2022-10-11T21:41:56.880Z,102421.78
2022-10-11T21:44:25.989Z,102424.91
2022-10-11T21:47:06.606Z,102431.56
2022-10-11T21:49:37.014Z,102425.91
2022-10-11T21:52:06.505Z,102419.00
2022-10-11T21:54:35.596Z,102427.78
2022-10-11T21:57:06.225Z,102427.41
2022-10-11T21:59:35.218Z,102431.22
2022-10-11T22:02:04.371Z,102424.41
2022-10-11T22:04:33.433Z,102423.28
2022-10-11T22:07:02.429Z,102423.47
2022-10-11T22:09:34.867Z,102417.53
2022-10-11T22:12:05.789Z,102421.44
2022-10-11T22:14:34.886Z,102421.06
2022-10-11T22:17:03.907Z,102424.72
2022-10-11T22:19:32.901Z,102422.16
2022-10-11T22:22:01.914Z,102423.91
2022-10-11T22:24:31.039Z,102415.56
2022-10-11T22:27:00.207Z,102417.63
2022-10-11T22:29:34.036Z,102417.97
2022-10-11T22:32:03.373Z,102422.47
2022-10-11T22:34:32.846Z,102419.69
2022-10-11T22:37:01.876Z,102419.34
2022-10-11T22:39:31.643Z,102418.56
2022-10-11T22:42:00.671Z,102423.03
2022-10-11T22:44:31.098Z,102425.09
2022-10-11T22:47:00.115Z,102427.13
2022-10-11T22:49:29.160Z,102422.81
2022-10-11T22:51:58.203Z,102428.78
2022-10-11T22:54:27.357Z,102423.34
2022-10-11T22:56:56.369Z,102427.63
2022-10-11T22:59:25.461Z,102430.47
2022-10-11T23:01:55.887Z,102424.94
2022-10-11T23:04:24.897Z,102429.25
2022-10-11T23:06:53.908Z,102429.31
2022-10-11T23:09:26.452Z,102435.66
2022-10-11T23:11:55.468Z,102434.31
2022-10-11T23:14:24.526Z,102443.63
2022-10-11T23:16:55.081Z,102440.91
2022-10-11T23:19:24.122Z,102438.34
2022-10-11T23:21:53.192Z,102432.13
2022-10-11T23:24:22.208Z,102435.63
2022-10-11T23:26:51.185Z,102437.31
2022-10-11T23:29:20.246Z,102441.09
2022-10-11T23:31:49.304Z,102446.72
2022-10-11T23:34:19.975Z,102447.06
2022-10-11T23:36:49.006Z,102438.31
2022-10-11T23:39:18.093Z,102440.41
2022-10-11T23:41:47.228Z,102437.03
2022-10-11T23:44:16.273Z,102437.88
2022-10-11T23:46:45.348Z,102436.78
2022-10-11T23:49:14.501Z,102438.66
2022-10-11T23:51:44.881Z,102442.16
2022-10-11T23:54:13.911Z,102440.03
2022-10-11T23:56:42.936Z,102447.63
2022-10-11T23:59:11.983Z,102449.16
